Terminal Aerodrome Forecast
Issued by NWS

Home | Current Version | Previous Version | Text Only | Print | Product List | Glossary On
Versions: 1 2 3 4 5 6 7 8 9 10 11 12 13 14 15
871
FTUS42 KMLB 291412 AAB
TAFLEE
TAF AMD
KLEE 291412Z 2914/3012 VRB03KT P6SM FEW020
     FM292100 08006KT P6SM VCSH BKN060
     FM300100 VRB04KT P6SM FEW080=

USA.gov is the U.S. government's official web portal to all federal, state and local government web resources and services.